createdAt,value
2019-01-06T00:02:18.173Z,12.27
2019-01-06T00:05:15.663Z,12.13
2019-01-06T00:08:04.376Z,11.00
2019-01-06T00:10:52.666Z,12.17
2019-01-06T00:13:59.404Z,10.13
2019-01-06T00:16:47.820Z,10.87
2019-01-06T00:19:39.005Z,8.17
2019-01-06T00:22:42.506Z,10.30
2019-01-06T00:25:34.202Z,11.00
2019-01-06T00:28:20.903Z,11.77
2019-01-06T00:31:24.793Z,11.53
2019-01-06T00:34:15.718Z,12.43
2019-01-06T00:37:19.548Z,13.97
2019-01-06T00:40:10.798Z,19.20
2019-01-06T00:42:57.802Z,11.43
2019-01-06T00:45:48.783Z,11.00
2019-01-06T00:48:44.234Z,11.30
2019-01-06T00:51:50.606Z,11.77
2019-01-06T00:54:53.908Z,6.67
2019-01-06T00:57:45.112Z,9.87
2019-01-06T01:00:32.157Z,9.10
2019-01-06T01:03:25.845Z,10.30
2019-01-06T01:06:13.002Z,7.37
2019-01-06T01:09:08.401Z,10.03
2019-01-06T01:12:02.837Z,9.97
2019-01-06T01:14:51.838Z,8.57
2019-01-06T01:17:43.683Z,10.00
2019-01-06T01:20:36.030Z,9.30
2019-01-06T01:23:27.751Z,9.00
2019-01-06T01:26:18.663Z,7.80
2019-01-06T01:29:22.560Z,11.23
2019-01-06T01:32:09.552Z,10.50
2019-01-06T01:35:09.235Z,11.03
2019-01-06T01:38:09.019Z,11.77
2019-01-06T01:40:57.398Z,10.30
2019-01-06T01:43:44.471Z,10.27
2019-01-06T01:46:38.962Z,9.77
2019-01-06T01:49:39.422Z,8.53
2019-01-06T01:52:33.694Z,9.53
2019-01-06T01:55:20.338Z,9.30
2019-01-06T01:58:20.932Z,11.17
2019-01-06T02:01:03.414Z,9.47
2019-01-06T02:03:54.559Z,9.40
2019-01-06T02:06:41.742Z,10.60
2019-01-06T02:09:30.468Z,10.30
2019-01-06T02:12:18.870Z,9.27
2019-01-06T02:15:15.942Z,7.40
2019-01-06T02:18:02.904Z,7.47
2019-01-06T02:21:06.356Z,7.53
2019-01-06T02:23:54.616Z,8.17
2019-01-06T02:26:41.717Z,8.77
2019-01-06T02:29:28.601Z,7.50
2019-01-06T02:32:15.415Z,7.63
2019-01-06T02:35:02.354Z,8.07
2019-01-06T02:37:49.484Z,7.10
2019-01-06T02:40:45.287Z,6.40
2019-01-06T02:43:42.342Z,6.30
2019-01-06T02:46:33.653Z,6.47
2019-01-06T02:49:20.856Z,6.03
2019-01-06T02:52:01.071Z,4.73
2019-01-06T02:54:48.108Z,5.97
2019-01-06T02:57:42.580Z,5.23
2019-01-06T03:00:34.171Z,5.87
2019-01-06T03:03:21.182Z,5.67
2019-01-06T03:06:18.962Z,6.53
2019-01-06T03:09:22.314Z,5.97
2019-01-06T03:12:09.961Z,6.73
2019-01-06T03:14:58.352Z,6.00
2019-01-06T03:17:59.042Z,5.60
2019-01-06T03:20:53.174Z,6.07
2019-01-06T03:23:40.304Z,7.00
2019-01-06T03:26:27.066Z,7.27
2019-01-06T03:29:06.843Z,7.87
2019-01-06T03:31:47.993Z,8.37
2019-01-06T03:34:45.754Z,9.50
2019-01-06T03:37:36.774Z,8.10
2019-01-06T03:40:38.316Z,8.40
2019-01-06T03:43:35.472Z,9.57
2019-01-06T03:46:22.919Z,7.87
2019-01-06T03:49:23.104Z,8.40
2019-01-06T03:52:20.584Z,9.60
2019-01-06T03:55:17.841Z,8.67
2019-01-06T03:58:03.464Z,9.67
2019-01-06T04:00:54.376Z,7.33
2019-01-06T04:03:48.925Z,8.40
2019-01-06T04:06:35.701Z,8.73
2019-01-06T04:09:37.972Z,8.67
2019-01-06T04:12:31.066Z,10.27
2019-01-06T04:15:22.399Z,9.90
2019-01-06T04:18:04.598Z,8.70
2019-01-06T04:21:11.306Z,9.80
2019-01-06T04:23:58.060Z,9.03
2019-01-06T04:26:45.094Z,7.70
2019-01-06T04:29:51.637Z,8.07
2019-01-06T04:32:42.897Z,7.13
2019-01-06T04:35:39.991Z,7.83
2019-01-06T04:38:27.178Z,7.30
2019-01-06T04:41:27.996Z,7.33
2019-01-06T04:44:16.526Z,6.77
2019-01-06T04:47:16.893Z,6.37
2019-01-06T04:50:04.204Z,5.93
2019-01-06T04:52:51.301Z,6.40
2019-01-06T04:55:55.044Z,6.27
2019-01-06T04:58:43.452Z,6.80
2019-01-06T05:01:30.098Z,6.33
2019-01-06T05:04:18.401Z,6.03
2019-01-06T05:07:02.633Z,7.20
2019-01-06T05:09:49.889Z,5.70
2019-01-06T05:12:50.743Z,7.80
2019-01-06T05:15:39.810Z,5.57
2019-01-06T05:18:31.371Z,5.17
2019-01-06T05:21:27.253Z,5.57
2019-01-06T05:24:14.691Z,4.93
2019-01-06T05:27:05.854Z,4.33
2019-01-06T05:30:06.447Z,5.63
2019-01-06T05:32:53.684Z,5.73
2019-01-06T05:35:55.007Z,4.87
2019-01-06T05:38:49.509Z,5.23
2019-01-06T05:41:37.853Z,4.57
2019-01-06T05:44:25.074Z,5.20
2019-01-06T05:47:29.636Z,5.73
2019-01-06T05:50:16.716Z,6.03
2019-01-06T05:53:22.995Z,4.77
2019-01-06T05:56:26.159Z,24.57
2019-01-06T05:59:17.112Z,4.20
2019-01-06T06:02:05.494Z,5.50
2019-01-06T06:05:06.151Z,4.80
2019-01-06T06:07:57.491Z,5.43
2019-01-06T06:10:44.247Z,5.50
2019-01-06T06:13:44.399Z,5.70
2019-01-06T06:16:32.259Z,5.97
2019-01-06T06:19:36.054Z,5.97
2019-01-06T06:22:24.728Z,6.00
2019-01-06T06:25:18.888Z,6.10
2019-01-06T06:28:13.509Z,6.67
2019-01-06T06:31:00.742Z,5.53
2019-01-06T06:33:55.304Z,6.37
2019-01-06T06:36:42.036Z,7.40
2019-01-06T06:39:29.447Z,7.73
2019-01-06T06:42:23.496Z,7.47
2019-01-06T06:45:10.182Z,7.47
2019-01-06T06:48:13.402Z,7.23
2019-01-06T06:51:19.903Z,6.40
2019-01-06T06:54:17.488Z,6.13
2019-01-06T06:57:22.479Z,6.27
2019-01-06T07:00:49.578Z,7.70
2019-01-06T07:03:44.016Z,7.50
2019-01-06T07:06:44.339Z,6.23
2019-01-06T07:09:27.174Z,6.87
2019-01-06T07:12:24.458Z,8.43
2019-01-06T07:15:21.592Z,8.20
2019-01-06T07:18:08.912Z,8.10
2019-01-06T07:21:08.156Z,7.70
2019-01-06T07:23:55.284Z,7.90
2019-01-06T07:26:49.722Z,6.07
2019-01-06T07:29:51.284Z,7.90
2019-01-06T07:32:45.953Z,7.40
2019-01-06T07:35:46.521Z,8.57
2019-01-06T07:38:37.990Z,7.77
2019-01-06T07:41:32.017Z,7.33
2019-01-06T07:44:20.364Z,6.90
2019-01-06T07:47:26.854Z,7.67
2019-01-06T07:50:07.429Z,7.30
2019-01-06T07:53:04.871Z,6.90
2019-01-06T07:55:51.833Z,6.90
2019-01-06T07:58:54.987Z,6.83
2019-01-06T08:01:42.424Z,6.80
2019-01-06T08:04:34.202Z,6.70
2019-01-06T08:07:21.175Z,7.27
2019-01-06T08:10:07.271Z,11.00
2019-01-06T08:12:54.489Z,7.83
2019-01-06T08:15:48.554Z,7.70
2019-01-06T08:18:44.975Z,8.17
2019-01-06T08:21:36.323Z,10.37
2019-01-06T08:24:40.217Z,9.73
2019-01-06T08:27:27.409Z,7.80
2019-01-06T08:30:28.481Z,8.43
2019-01-06T08:33:15.432Z,8.90
2019-01-06T08:36:09.827Z,8.03
2019-01-06T08:38:57.029Z,8.33
2019-01-06T08:41:54.884Z,10.37
2019-01-06T08:44:41.878Z,8.80
2019-01-06T08:47:46.025Z,9.87
2019-01-06T08:50:33.190Z,7.47
2019-01-06T08:53:19.470Z,8.73
2019-01-06T08:56:25.990Z,9.60
2019-01-06T08:59:19.975Z,8.57
2019-01-06T09:02:26.402Z,7.27
2019-01-06T09:05:13.077Z,7.57
2019-01-06T09:08:07.559Z,8.53
2019-01-06T09:11:02.362Z,8.23
2019-01-06T09:13:51.287Z,7.13
2019-01-06T09:16:39.863Z,9.63
2019-01-06T09:19:27.127Z,10.00
2019-01-06T09:22:14.412Z,17.37
2019-01-06T09:25:02.737Z,14.27
2019-01-06T09:28:06.332Z,9.13
2019-01-06T09:31:03.776Z,8.37
2019-01-06T09:33:55.243Z,8.03
2019-01-06T09:36:42.242Z,9.13
2019-01-06T09:39:33.614Z,8.00
2019-01-06T09:42:20.876Z,10.30
2019-01-06T09:45:07.647Z,10.90
2019-01-06T09:48:05.042Z,9.60
2019-01-06T09:50:47.924Z,9.33
2019-01-06T09:53:45.265Z,9.37
2019-01-06T09:56:42.656Z,8.40
2019-01-06T09:59:33.643Z,10.83
2019-01-06T10:02:20.502Z,9.03
2019-01-06T10:05:14.800Z,9.63
2019-01-06T10:08:18.300Z,10.50
2019-01-06T10:11:12.610Z,9.03
2019-01-06T10:14:06.683Z,11.23
2019-01-06T10:17:06.814Z,10.03
2019-01-06T10:20:10.351Z,9.20
2019-01-06T10:22:56.891Z,8.30
2019-01-06T10:25:41.445Z,6.80
2019-01-06T10:28:38.734Z,6.07
2019-01-06T10:31:30.040Z,7.87
2019-01-06T10:34:24.032Z,7.50
2019-01-06T10:37:11.104Z,7.30
2019-01-06T10:39:57.654Z,8.93
2019-01-06T10:42:44.576Z,7.93
2019-01-06T10:45:35.676Z,6.87
2019-01-06T10:48:27.230Z,7.70
2019-01-06T10:51:14.301Z,8.27
2019-01-06T10:54:11.714Z,7.97
2019-01-06T10:57:02.600Z,8.67
2019-01-06T10:59:49.549Z,10.20
2019-01-06T11:02:37.961Z,10.03
2019-01-06T11:05:32.425Z,8.43
2019-01-06T11:08:19.258Z,8.17
2019-01-06T11:11:10.816Z,9.20
2019-01-06T11:13:59.225Z,8.97
2019-01-06T11:16:52.052Z,7.63
2019-01-06T11:19:47.244Z,7.97
2019-01-06T11:22:34.074Z,9.17
2019-01-06T11:25:22.834Z,11.13
2019-01-06T11:28:07.865Z,6.40
2019-01-06T11:31:13.854Z,7.23
2019-01-06T11:34:00.804Z,5.40
2019-01-06T11:36:53.156Z,6.60
2019-01-06T11:39:59.726Z,6.17
2019-01-06T11:43:02.968Z,6.93
2019-01-06T11:45:50.064Z,6.47
2019-01-06T11:48:47.578Z,5.67
2019-01-06T11:51:38.895Z,5.87
2019-01-06T11:54:32.998Z,5.27
2019-01-06T11:57:33.309Z,6.97
2019-01-06T12:00:24.576Z,5.97
2019-01-06T12:03:14.244Z,4.53
2019-01-06T12:06:00.908Z,4.60
2019-01-06T12:08:51.958Z,5.33
2019-01-06T12:11:46.768Z,6.07
2019-01-06T12:14:25.963Z,4.97
2019-01-06T12:17:10.706Z,7.17
2019-01-06T12:19:58.872Z,6.17
2019-01-06T12:22:45.805Z,7.80
2019-01-06T12:25:32.653Z,7.20
2019-01-06T12:28:19.892Z,5.97
2019-01-06T12:31:11.408Z,8.43
2019-01-06T12:33:58.399Z,7.97
2019-01-06T12:36:45.340Z,4.97
2019-01-06T12:39:32.377Z,5.37
2019-01-06T12:42:26.916Z,5.47
2019-01-06T12:45:27.116Z,5.77
2019-01-06T12:48:21.661Z,5.80
2019-01-06T12:51:28.111Z,6.77
2019-01-06T12:54:22.685Z,6.10
2019-01-06T12:57:26.334Z,5.80
2019-01-06T13:00:13.501Z,5.87
2019-01-06T13:03:04.587Z,6.27
2019-01-06T13:06:08.017Z,5.97
2019-01-06T13:08:56.446Z,6.00
2019-01-06T13:11:43.662Z,5.23
2019-01-06T13:14:40.695Z,5.50
2019-01-06T13:17:47.349Z,6.13
2019-01-06T13:20:36.074Z,9.70
2019-01-06T13:23:30.606Z,7.60
2019-01-06T13:26:17.473Z,6.80
2019-01-06T13:29:20.748Z,8.90
2019-01-06T13:32:03.498Z,7.67
2019-01-06T13:35:04.154Z,6.03
2019-01-06T13:38:07.344Z,8.20
2019-01-06T13:41:03.008Z,9.63
2019-01-06T13:43:55.167Z,9.97
2019-01-06T13:46:49.395Z,10.17
2019-01-06T13:49:49.711Z,9.20
2019-01-06T13:52:49.800Z,8.83
2019-01-06T13:55:36.585Z,7.00
2019-01-06T13:58:25.066Z,8.40
2019-01-06T14:01:16.490Z,6.90
2019-01-06T14:04:03.419Z,6.60
2019-01-06T14:07:00.001Z,5.33
2019-01-06T14:09:54.450Z,7.30
2019-01-06T14:12:41.464Z,7.27
2019-01-06T14:15:44.819Z,6.00
2019-01-06T14:18:31.611Z,5.60
2019-01-06T14:21:18.787Z,5.30
2019-01-06T14:24:05.815Z,6.57
2019-01-06T14:26:54.171Z,7.93
2019-01-06T14:29:48.265Z,7.27
2019-01-06T14:32:39.833Z,7.63
2019-01-06T14:35:32.139Z,5.57
2019-01-06T14:38:20.502Z,5.93
2019-01-06T14:41:11.668Z,6.00
2019-01-06T14:44:13.973Z,5.57
2019-01-06T14:47:08.316Z,7.47
2019-01-06T14:49:55.537Z,7.30
2019-01-06T14:52:40.398Z,7.83
2019-01-06T14:55:29.077Z,7.10
2019-01-06T14:58:20.067Z,10.47
2019-01-06T15:01:07.564Z,9.67
2019-01-06T15:03:55.913Z,8.80
2019-01-06T15:06:44.888Z,9.03
2019-01-06T15:09:39.447Z,7.93
2019-01-06T15:12:26.731Z,13.63
2019-01-06T15:15:21.015Z,11.37
2019-01-06T15:18:15.021Z,11.17
2019-01-06T15:21:02.080Z,7.10
2019-01-06T15:23:48.797Z,9.30
2019-01-06T15:26:35.925Z,9.40
2019-01-06T15:29:36.354Z,10.70
2019-01-06T15:32:42.689Z,8.93
2019-01-06T15:35:34.365Z,8.60
2019-01-06T15:38:25.858Z,8.67
2019-01-06T15:41:26.334Z,7.43
2019-01-06T15:44:17.821Z,8.33
2019-01-06T15:47:07.007Z,8.03
2019-01-06T15:49:53.713Z,6.53
2019-01-06T15:53:00.316Z,7.03
2019-01-06T15:55:48.636Z,7.70
2019-01-06T15:58:36.046Z,8.27
2019-01-06T16:01:36.642Z,8.27
2019-01-06T16:04:36.889Z,10.27
2019-01-06T16:07:37.274Z,8.93
2019-01-06T16:10:25.712Z,8.60
2019-01-06T16:13:12.502Z,8.77
2019-01-06T16:15:54.864Z,8.47
2019-01-06T16:18:39.120Z,11.77
2019-01-06T16:21:28.444Z,6.03
2019-01-06T16:24:12.549Z,7.53
2019-01-06T16:27:01.002Z,10.67
2019-01-06T16:29:47.975Z,9.07
2019-01-06T16:32:42.586Z,8.50
2019-01-06T16:35:33.222Z,10.47
2019-01-06T16:38:27.806Z,10.10
2019-01-06T16:41:24.426Z,6.37
2019-01-06T16:44:16.238Z,5.53
2019-01-06T16:47:02.766Z,8.70
2019-01-06T16:50:08.932Z,10.67
2019-01-06T16:52:57.238Z,8.03
2019-01-06T16:55:48.650Z,9.77
2019-01-06T16:58:37.494Z,6.27
2019-01-06T17:01:31.582Z,6.97
2019-01-06T17:04:23.648Z,6.43
2019-01-06T17:07:12.101Z,6.93
2019-01-06T17:09:59.211Z,7.57
2019-01-06T17:13:00.290Z,9.07
2019-01-06T17:15:45.857Z,5.67
2019-01-06T17:18:35.650Z,6.30
2019-01-06T17:21:27.681Z,5.53
2019-01-06T17:24:28.234Z,5.93
2019-01-06T17:27:25.599Z,5.80
2019-01-06T17:30:14.349Z,8.47
2019-01-06T17:33:05.843Z,6.77
2019-01-06T17:35:52.618Z,11.40
2019-01-06T17:38:44.176Z,7.07
2019-01-06T17:41:31.536Z,8.30
2019-01-06T17:44:37.911Z,7.43
2019-01-06T17:47:32.660Z,15.03
2019-01-06T17:50:23.672Z,10.47
2019-01-06T17:53:23.860Z,15.30
2019-01-06T17:56:29.985Z,12.93
2019-01-06T17:59:30.767Z,14.07
2019-01-06T18:02:19.472Z,11.13
2019-01-06T18:05:05.272Z,10.17
2019-01-06T18:07:59.635Z,11.23
2019-01-06T18:10:53.230Z,8.90
2019-01-06T18:13:40.296Z,8.97
2019-01-06T18:16:31.484Z,13.80
2019-01-06T18:19:35.137Z,15.33
2019-01-06T18:22:36.432Z,9.73
2019-01-06T18:25:27.512Z,10.10
2019-01-06T18:28:24.989Z,10.60
2019-01-06T18:31:11.830Z,9.73
2019-01-06T18:34:03.191Z,9.83
2019-01-06T18:36:49.948Z,7.17
2019-01-06T18:39:37.146Z,10.67
2019-01-06T18:42:28.538Z,14.63
2019-01-06T18:45:27.989Z,17.97
2019-01-06T18:48:14.689Z,17.27
2019-01-06T18:51:09.154Z,14.70
2019-01-06T18:54:09.515Z,13.07
2019-01-06T18:57:13.115Z,11.07
2019-01-06T19:00:04.502Z,12.37
2019-01-06T19:03:11.127Z,9.47
2019-01-06T19:05:57.748Z,7.03
2019-01-06T19:08:52.477Z,5.90
2019-01-06T19:11:49.998Z,6.00
2019-01-06T19:14:36.921Z,6.03
2019-01-06T19:17:23.415Z,6.60
2019-01-06T19:20:19.027Z,6.07
2019-01-06T19:23:19.284Z,6.73
2019-01-06T19:26:06.563Z,5.17
2019-01-06T19:29:03.637Z,5.10
2019-01-06T19:32:10.174Z,5.43
2019-01-06T19:34:57.282Z,5.20
2019-01-06T19:37:48.424Z,5.50
2019-01-06T19:40:35.412Z,4.87
2019-01-06T19:43:29.794Z,5.70
2019-01-06T19:46:13.225Z,8.07
2019-01-06T19:49:00.082Z,15.57
2019-01-06T19:51:48.377Z,11.67
2019-01-06T19:54:29.043Z,19.80
2019-01-06T19:57:22.974Z,8.90
2019-01-06T20:00:23.240Z,9.83
2019-01-06T20:03:29.715Z,13.57
2019-01-06T20:06:25.271Z,11.67
2019-01-06T20:09:19.386Z,13.37
2019-01-06T20:12:07.847Z,15.27
2019-01-06T20:14:54.880Z,16.23
2019-01-06T20:17:41.981Z,13.67
2019-01-06T20:20:39.358Z,14.33
2019-01-06T20:23:28.001Z,15.80
2019-01-06T20:26:26.317Z,16.20
2019-01-06T20:29:14.936Z,13.97
2019-01-06T20:31:56.990Z,12.47
2019-01-06T20:34:45.421Z,16.23
2019-01-06T20:37:42.492Z,13.03
2019-01-06T20:40:43.237Z,8.57
2019-01-06T20:43:31.067Z,10.53
2019-01-06T20:46:37.504Z,8.47
2019-01-06T20:49:26.480Z,12.43
2019-01-06T20:52:26.993Z,11.80
2019-01-06T20:55:18.203Z,8.23
2019-01-06T20:58:15.538Z,10.43
2019-01-06T21:01:19.081Z,6.87
2019-01-06T21:04:10.506Z,7.83
2019-01-06T21:07:13.734Z,9.13
2019-01-06T21:10:00.831Z,9.27
2019-01-06T21:13:00.852Z,10.03
2019-01-06T21:15:47.943Z,9.67
2019-01-06T21:18:34.640Z,9.83
2019-01-06T21:21:21.085Z,9.87
2019-01-06T21:24:10.845Z,10.67
2019-01-06T21:26:58.190Z,9.40
2019-01-06T21:29:45.176Z,12.43
2019-01-06T21:32:42.757Z,11.20
2019-01-06T21:35:20.040Z,8.33
2019-01-06T21:38:20.169Z,9.03
2019-01-06T21:41:07.051Z,9.87
2019-01-06T21:43:58.270Z,10.33
2019-01-06T21:46:45.215Z,9.73
2019-01-06T21:49:26.324Z,10.80
2019-01-06T21:52:20.917Z,10.57
2019-01-06T21:55:08.538Z,10.30
2019-01-06T21:58:05.980Z,10.77
2019-01-06T22:01:00.711Z,8.93
2019-01-06T22:04:08.338Z,10.30
2019-01-06T22:06:56.696Z,11.07
2019-01-06T22:09:43.553Z,10.33
2019-01-06T22:12:30.449Z,12.20
2019-01-06T22:15:24.532Z,25.70
2019-01-06T22:18:18.926Z,13.13
2019-01-06T22:21:19.367Z,11.93
2019-01-06T22:24:13.364Z,10.90
2019-01-06T22:27:10.509Z,10.33
2019-01-06T22:30:01.579Z,12.10
2019-01-06T22:32:54.622Z,10.77
2019-01-06T22:35:47.319Z,9.70
2019-01-06T22:38:34.125Z,11.20
2019-01-06T22:41:22.805Z,13.67
2019-01-06T22:44:16.783Z,14.60
2019-01-06T22:47:04.078Z,17.17
2019-01-06T22:49:50.929Z,12.77
2019-01-06T22:52:45.252Z,12.80
2019-01-06T22:55:32.358Z,11.20
2019-01-06T22:58:27.064Z,10.77
2019-01-06T23:01:27.869Z,12.20
2019-01-06T23:04:20.784Z,10.83
2019-01-06T23:07:23.461Z,11.93
2019-01-06T23:10:08.316Z,9.53
2019-01-06T23:12:56.709Z,9.70
2019-01-06T23:15:43.398Z,11.90
2019-01-06T23:18:30.103Z,10.13
2019-01-06T23:21:16.095Z,9.37
2019-01-06T23:24:02.900Z,9.63
2019-01-06T23:26:57.484Z,9.60
2019-01-06T23:29:51.672Z,11.03
2019-01-06T23:32:39.184Z,13.20
2019-01-06T23:35:33.419Z,10.50
2019-01-06T23:38:36.883Z,9.57
2019-01-06T23:41:40.130Z,9.03
2019-01-06T23:44:26.919Z,9.60
2019-01-06T23:47:15.525Z,9.90
2019-01-06T23:50:04.306Z,10.27
2019-01-06T23:52:53.467Z,10.03
2019-01-06T23:55:41.817Z,8.53
2019-01-06T23:58:28.860Z,21.03
